logo
Search for airport 
image banner adimage banner adimage banner ad
image banner ad

EHS045 - Winssen

Located in , Netherlands

ICAO - , IATA -

Data provided by Airmate  

General information

Coordinates: N51°52'3" E5°41'49"
Elevation is 22 feet MSL.
 
View others Airports in Gelderland

Operational data

Special qualification required
Current time UTC:
Current local time:
Weather at : EHVK - Volkel ( 23 km )
METAR: EHVK 150859Z AUTO 22017KT 170V260 9999 FEW025 SCT029 BKN037 11/06 Q1008 BLU NOSIG
TAF: TAF EHVK 150835Z 1509/1521 22015G27KT 9999 BKN020 TEMPO 1511/1515 23017G42KT 2000 RA SHRA TSRAGS SCT012 SCT015CB BKN018 BECMG 1513/1515 27017G37KT TEMPO 1515/1521 28020G43KT 3000 SHRA TSRAGS SCT012 SCT018CB BECMG 1520/1521 27012G28KT
View NOTAMs / SUP AIP / TFR affecting this airport [VIEW]
Communications frequencies: [VIEW]

Runways:

Airport contact information

Address: Netherlands

Satellite view of EHS045